sensor_id;sensor_type;location;lat;lon;timestamp;pressure;altitude;pressure_sealevel;temperature;humidity
48041;BME280;33815;48.386;11.738;2023-05-22T00:00:06;96125.38;;;12.30;100.00
48041;BME280;33815;48.386;11.738;2023-05-22T00:02:33;96123.00;;;12.21;100.00
48041;BME280;33815;48.386;11.738;2023-05-22T00:05:05;96111.59;;;12.13;100.00
48041;BME280;33815;48.386;11.738;2023-05-22T00:07:31;96118.91;;;12.18;100.00
48041;BME280;33815;48.386;11.738;2023-05-22T00:09:56;96109.38;;;12.02;100.00
48041;BME280;33815;48.386;11.738;2023-05-22T00:12:21;96114.25;;;12.05;100.00
48041;BME280;33815;48.386;11.738;2023-05-22T00:14:47;96123.41;;;12.01;100.00
48041;BME280;33815;48.386;11.738;2023-05-22T00:17:12;96112.66;;;11.96;100.00
48041;BME280;33815;48.386;11.738;2023-05-22T00:19:38;96108.53;;;11.93;100.00
48041;BME280;33815;48.386;11.738;2023-05-22T00:22:04;96112.47;;;11.89;100.00
48041;BME280;33815;48.386;11.738;2023-05-22T00:24:29;96118.84;;;11.95;100.00
48041;BME280;33815;48.386;11.738;2023-05-22T00:26:55;96115.94;;;11.90;100.00
48041;BME280;33815;48.386;11.738;2023-05-22T00:29:21;96118.19;;;11.93;100.00
48041;BME280;33815;48.386;11.738;2023-05-22T00:31:46;96121.31;;;11.88;100.00
48041;BME280;33815;48.386;11.738;2023-05-22T00:34:11;96102.59;;;11.76;100.00
48041;BME280;33815;48.386;11.738;2023-05-22T00:36:37;96115.13;;;11.81;100.00
48041;BME280;33815;48.386;11.738;2023-05-22T00:39:02;96107.00;;;11.76;100.00
48041;BME280;33815;48.386;11.738;2023-05-22T00:41:27;96108.94;;;11.74;100.00
48041;BME280;33815;48.386;11.738;2023-05-22T00:43:52;96112.72;;;11.71;100.00
48041;BME280;33815;48.386;11.738;2023-05-22T00:46:18;96095.63;;;11.60;100.00
48041;BME280;33815;48.386;11.738;2023-05-22T00:48:46;96105.22;;;11.68;100.00
48041;BME280;33815;48.386;11.738;2023-05-22T00:51:11;96091.06;;;11.54;100.00
48041;BME280;33815;48.386;11.738;2023-05-22T00:53:37;96108.50;;;11.62;100.00
48041;BME280;33815;48.386;11.738;2023-05-22T00:56:04;96103.81;;;11.57;100.00
48041;BME280;33815;48.386;11.738;2023-05-22T00:58:31;96096.00;;;11.49;100.00
48041;BME280;33815;48.386;11.738;2023-05-22T01:00:56;96105.75;;;11.55;100.00
48041;BME280;33815;48.386;11.738;2023-05-22T01:03:23;96100.41;;;11.40;100.00
48041;BME280;33815;48.386;11.738;2023-05-22T01:05:50;96116.38;;;11.45;100.00
48041;BME280;33815;48.386;11.738;2023-05-22T01:08:16;96107.59;;;11.38;100.00
48041;BME280;33815;48.386;11.738;2023-05-22T01:10:41;96117.34;;;11.44;100.00
48041;BME280;33815;48.386;11.738;2023-05-22T01:13:51;96117.53;;;11.43;100.00
48041;BME280;33815;48.386;11.738;2023-05-22T01:16:29;96120.81;;;11.37;100.00
48041;BME280;33815;48.386;11.738;2023-05-22T01:25:41;96124.41;;;11.19;100.00
48041;BME280;33815;48.386;11.738;2023-05-22T01:33:13;96127.38;;;11.00;100.00
48041;BME280;33815;48.386;11.738;2023-05-22T01:35:40;96100.81;;;10.79;100.00
48041;BME280;33815;48.386;11.738;2023-05-22T01:38:07;96115.50;;;10.89;100.00
48041;BME280;33815;48.386;11.738;2023-05-22T01:40:35;96131.13;;;10.89;100.00
48041;BME280;33815;48.386;11.738;2023-05-22T01:43:00;96134.06;;;10.86;100.00
48041;BME280;33815;48.386;11.738;2023-05-22T01:45:26;96125.41;;;10.77;100.00
48041;BME280;33815;48.386;11.738;2023-05-22T01:47:51;96133.25;;;10.77;100.00
48041;BME280;33815;48.386;11.738;2023-05-22T01:50:17;96129.81;;;10.76;100.00
48041;BME280;33815;48.386;11.738;2023-05-22T01:53:17;96130.31;;;10.72;100.00
48041;BME280;33815;48.386;11.738;2023-05-22T01:56:11;96118.75;;;10.58;100.00
48041;BME280;33815;48.386;11.738;2023-05-22T01:59:03;96136.31;;;10.64;100.00
48041;BME280;33815;48.386;11.738;2023-05-22T02:01:34;96121.69;;;10.55;100.00
48041;BME280;33815;48.386;11.738;2023-05-22T02:04:00;96117.75;;;10.51;100.00
48041;BME280;33815;48.386;11.738;2023-05-22T02:06:28;96133.06;;;10.54;100.00
48041;BME280;33815;48.386;11.738;2023-05-22T02:08:56;96126.38;;;10.51;100.00
48041;BME280;33815;48.386;11.738;2023-05-22T02:11:23;96135.50;;;10.55;100.00
48041;BME280;33815;48.386;11.738;2023-05-22T02:13:51;96145.44;;;10.52;100.00
48041;BME280;33815;48.386;11.738;2023-05-22T02:16:16;96134.03;;;10.44;100.00
48041;BME280;33815;48.386;11.738;2023-05-22T02:18:43;96132.25;;;10.45;100.00
48041;BME280;33815;48.386;11.738;2023-05-22T02:21:09;96129.94;;;10.42;100.00
48041;BME280;33815;48.386;11.738;2023-05-22T02:23:34;96113.94;;;10.28;100.00
48041;BME280;33815;48.386;11.738;2023-05-22T02:26:02;96118.47;;;10.26;100.00
48041;BME280;33815;48.386;11.738;2023-05-22T02:28:27;96138.88;;;10.31;100.00
48041;BME280;33815;48.386;11.738;2023-05-22T02:30:52;96139.66;;;10.32;100.00
48041;BME280;33815;48.386;11.738;2023-05-22T02:33:18;96135.41;;;10.31;100.00
48041;BME280;33815;48.386;11.738;2023-05-22T02:35:44;96120.94;;;10.20;100.00
48041;BME280;33815;48.386;11.738;2023-05-22T02:38:09;96125.97;;;10.21;100.00
48041;BME280;33815;48.386;11.738;2023-05-22T02:40:34;96122.50;;;10.12;100.00
48041;BME280;33815;48.386;11.738;2023-05-22T02:43:00;96123.84;;;10.17;100.00
48041;BME280;33815;48.386;11.738;2023-05-22T02:45:25;96131.66;;;10.25;100.00
48041;BME280;33815;48.386;11.738;2023-05-22T02:47:50;96131.63;;;10.17;100.00
48041;BME280;33815;48.386;11.738;2023-05-22T02:50:16;96133.44;;;10.16;100.00
48041;BME280;33815;48.386;11.738;2023-05-22T02:52:41;96137.50;;;10.10;100.00
48041;BME280;33815;48.386;11.738;2023-05-22T02:55:07;96136.81;;;10.08;100.00
48041;BME280;33815;48.386;11.738;2023-05-22T02:57:32;96135.66;;;10.03;100.00
48041;BME280;33815;48.386;11.738;2023-05-22T02:59:58;96131.09;;;9.97;100.00
48041;BME280;33815;48.386;11.738;2023-05-22T03:02:26;96119.84;;;9.88;100.00
48041;BME280;33815;48.386;11.738;2023-05-22T03:04:56;96149.00;;;10.00;100.00
48041;BME280;33815;48.386;11.738;2023-05-22T03:07:23;96143.63;;;10.01;100.00
48041;BME280;33815;48.386;11.738;2023-05-22T03:09:50;96141.69;;;9.95;100.00
48041;BME280;33815;48.386;11.738;2023-05-22T03:12:15;96127.97;;;9.85;100.00
48041;BME280;33815;48.386;11.738;2023-05-22T03:14:41;96123.91;;;9.82;100.00
48041;BME280;33815;48.386;11.738;2023-05-22T03:17:06;96122.41;;;9.80;100.00
48041;BME280;33815;48.386;11.738;2023-05-22T03:19:31;96136.22;;;9.80;100.00
48041;BME280;33815;48.386;11.738;2023-05-22T03:21:56;96143.88;;;9.82;100.00
48041;BME280;33815;48.386;11.738;2023-05-22T03:24:22;96135.22;;;9.73;100.00
48041;BME280;33815;48.386;11.738;2023-05-22T03:26:47;96149.41;;;9.78;100.00
48041;BME280;33815;48.386;11.738;2023-05-22T03:29:12;96147.47;;;9.81;100.00
48041;BME280;33815;48.386;11.738;2023-05-22T03:31:37;96152.69;;;9.81;100.00
48041;BME280;33815;48.386;11.738;2023-05-22T03:34:03;96146.16;;;9.76;100.00
48041;BME280;33815;48.386;11.738;2023-05-22T03:36:29;96154.25;;;9.73;100.00
48041;BME280;33815;48.386;11.738;2023-05-22T03:38:57;96159.13;;;9.68;100.00
48041;BME280;33815;48.386;11.738;2023-05-22T03:41:23;96157.81;;;9.64;100.00
48041;BME280;33815;48.386;11.738;2023-05-22T03:43:48;96143.22;;;9.45;100.00
48041;BME280;33815;48.386;11.738;2023-05-22T03:46:14;96151.00;;;9.45;100.00
48041;BME280;33815;48.386;11.738;2023-05-22T03:48:39;96144.66;;;9.39;100.00
48041;BME280;33815;48.386;11.738;2023-05-22T03:51:04;96162.91;;;9.48;100.00
48041;BME280;33815;48.386;11.738;2023-05-22T03:53:30;96160.00;;;9.51;100.00
48041;BME280;33815;48.386;11.738;2023-05-22T03:55:55;96164.53;;;9.49;100.00
48041;BME280;33815;48.386;11.738;2023-05-22T03:58:23;96158.81;;;9.45;100.00
48041;BME280;33815;48.386;11.738;2023-05-22T04:00:50;96160.47;;;9.46;100.00
48041;BME280;33815;48.386;11.738;2023-05-22T04:03:16;96149.84;;;9.39;100.00
48041;BME280;33815;48.386;11.738;2023-05-22T04:05:43;96146.59;;;9.37;100.00
48041;BME280;33815;48.386;11.738;2023-05-22T04:08:09;96152.50;;;9.48;100.00
48041;BME280;33815;48.386;11.738;2023-05-22T04:10:34;96158.72;;;9.55;100.00
48041;BME280;33815;48.386;11.738;2023-05-22T04:13:01;96155.47;;;9.53;100.00
48041;BME280;33815;48.386;11.738;2023-05-22T04:15:26;96146.50;;;9.47;100.00
48041;BME280;33815;48.386;11.738;2023-05-22T04:17:52;96151.53;;;9.49;100.00
48041;BME280;33815;48.386;11.738;2023-05-22T04:20:18;96149.25;;;9.46;100.00
48041;BME280;33815;48.386;11.738;2023-05-22T04:22:46;96171.13;;;9.61;100.00
48041;BME280;33815;48.386;11.738;2023-05-22T04:25:13;96169.22;;;9.71;100.00
48041;BME280;33815;48.386;11.738;2023-05-22T04:27:38;96144.94;;;9.63;100.00
48041;BME280;33815;48.386;11.738;2023-05-22T04:30:05;96170.38;;;9.77;100.00
48041;BME280;33815;48.386;11.738;2023-05-22T04:32:31;96172.81;;;9.78;100.00
48041;BME280;33815;48.386;11.738;2023-05-22T04:34:56;96179.72;;;9.88;100.00
48041;BME280;33815;48.386;11.738;2023-05-22T04:37:24;96160.19;;;9.84;100.00
48041;BME280;33815;48.386;11.738;2023-05-22T04:39:53;96164.94;;;9.97;100.00
48041;BME280;33815;48.386;11.738;2023-05-22T04:42:21;96161.06;;;10.01;100.00
48041;BME280;33815;48.386;11.738;2023-05-22T04:44:47;96175.47;;;10.21;100.00
48041;BME280;33815;48.386;11.738;2023-05-22T04:47:12;96173.03;;;10.28;100.00
48041;BME280;33815;48.386;11.738;2023-05-22T04:49:41;96163.66;;;10.35;100.00
48041;BME280;33815;48.386;11.738;2023-05-22T04:52:07;96172.13;;;10.45;100.00
48041;BME280;33815;48.386;11.738;2023-05-22T04:54:32;96171.19;;;10.55;100.00
48041;BME280;33815;48.386;11.738;2023-05-22T04:56:59;96157.16;;;10.56;100.00
48041;BME280;33815;48.386;11.738;2023-05-22T04:59:24;96173.47;;;10.74;100.00
48041;BME280;33815;48.386;11.738;2023-05-22T05:01:51;96167.47;;;10.82;100.00
48041;BME280;33815;48.386;11.738;2023-05-22T05:04:16;96166.81;;;10.96;100.00
48041;BME280;33815;48.386;11.738;2023-05-22T05:06:41;96173.50;;;11.16;100.00
48041;BME280;33815;48.386;11.738;2023-05-22T05:09:07;96176.41;;;11.29;100.00
48041;BME280;33815;48.386;11.738;2023-05-22T05:11:33;96179.03;;;11.37;100.00
48041;BME280;33815;48.386;11.738;2023-05-22T05:13:58;96182.13;;;11.49;100.00
48041;BME280;33815;48.386;11.738;2023-05-22T05:16:24;96178.19;;;11.61;100.00
48041;BME280;33815;48.386;11.738;2023-05-22T05:18:50;96176.81;;;11.74;100.00
48041;BME280;33815;48.386;11.738;2023-05-22T05:21:16;96176.63;;;11.92;100.00
48041;BME280;33815;48.386;11.738;2023-05-22T05:23:42;96179.91;;;12.02;100.00
48041;BME280;33815;48.386;11.738;2023-05-22T05:26:07;96177.53;;;12.15;100.00
48041;BME280;33815;48.386;11.738;2023-05-22T05:28:33;96173.19;;;12.39;100.00
48041;BME280;33815;48.386;11.738;2023-05-22T05:30:58;96165.25;;;12.56;100.00
48041;BME280;33815;48.386;11.738;2023-05-22T05:33:23;96167.59;;;12.74;100.00
48041;BME280;33815;48.386;11.738;2023-05-22T05:35:48;96162.16;;;12.83;100.00
48041;BME280;33815;48.386;11.738;2023-05-22T05:38:14;96171.97;;;13.05;100.00
48041;BME280;33815;48.386;11.738;2023-05-22T05:40:41;96174.91;;;13.25;100.00
48041;BME280;33815;48.386;11.738;2023-05-22T05:43:07;96159.19;;;13.25;100.00
48041;BME280;33815;48.386;11.738;2023-05-22T05:45:33;96177.25;;;13.34;100.00
48041;BME280;33815;48.386;11.738;2023-05-22T05:47:58;96159.69;;;13.43;100.00
48041;BME280;33815;48.386;11.738;2023-05-22T05:50:23;96160.91;;;13.70;100.00
48041;BME280;33815;48.386;11.738;2023-05-22T05:52:49;96155.69;;;13.70;100.00
48041;BME280;33815;48.386;11.738;2023-05-22T05:55:14;96170.47;;;13.78;100.00
48041;BME280;33815;48.386;11.738;2023-05-22T05:57:39;96172.56;;;13.98;100.00
48041;BME280;33815;48.386;11.738;2023-05-22T06:00:05;96162.53;;;13.86;100.00
48041;BME280;33815;48.386;11.738;2023-05-22T06:02:33;96172.84;;;14.03;100.00
48041;BME280;33815;48.386;11.738;2023-05-22T06:04:59;96174.78;;;14.31;100.00
48041;BME280;33815;48.386;11.738;2023-05-22T06:07:24;96159.59;;;14.26;100.00
48041;BME280;33815;48.386;11.738;2023-05-22T06:09:49;96161.25;;;14.49;100.00
48041;BME280;33815;48.386;11.738;2023-05-22T06:12:15;96161.78;;;14.59;100.00
48041;BME280;33815;48.386;11.738;2023-05-22T06:14:40;96173.00;;;14.89;100.00
48041;BME280;33815;48.386;11.738;2023-05-22T06:17:06;96167.53;;;14.84;100.00
48041;BME280;33815;48.386;11.738;2023-05-22T06:19:33;96175.47;;;14.91;100.00
48041;BME280;33815;48.386;11.738;2023-05-22T06:21:58;96184.19;;;15.20;100.00
48041;BME280;33815;48.386;11.738;2023-05-22T06:24:24;96179.84;;;15.34;100.00
48041;BME280;33815;48.386;11.738;2023-05-22T06:26:49;96179.00;;;15.27;100.00
48041;BME280;33815;48.386;11.738;2023-05-22T06:29:14;96174.28;;;15.44;100.00
48041;BME280;33815;48.386;11.738;2023-05-22T06:31:39;96179.78;;;15.49;100.00
48041;BME280;33815;48.386;11.738;2023-05-22T06:34:05;96172.16;;;15.61;100.00
48041;BME280;33815;48.386;11.738;2023-05-22T06:36:30;96175.84;;;15.66;100.00
48041;BME280;33815;48.386;11.738;2023-05-22T06:38:56;96170.38;;;15.89;100.00
48041;BME280;33815;48.386;11.738;2023-05-22T06:41:21;96155.25;;;15.98;100.00
48041;BME280;33815;48.386;11.738;2023-05-22T06:43:46;96176.22;;;15.91;100.00
48041;BME280;33815;48.386;11.738;2023-05-22T06:46:12;96175.84;;;15.95;100.00
48041;BME280;33815;48.386;11.738;2023-05-22T06:48:37;96166.94;;;15.96;100.00
48041;BME280;33815;48.386;11.738;2023-05-22T06:51:02;96177.19;;;16.19;100.00
48041;BME280;33815;48.386;11.738;2023-05-22T06:53:28;96177.22;;;16.32;100.00
48041;BME280;33815;48.386;11.738;2023-05-22T06:55:54;96167.53;;;16.39;100.00
48041;BME280;33815;48.386;11.738;2023-05-22T06:58:19;96185.16;;;16.39;100.00
48041;BME280;33815;48.386;11.738;2023-05-22T07:00:45;96177.94;;;16.54;100.00
48041;BME280;33815;48.386;11.738;2023-05-22T07:03:10;96186.66;;;16.68;100.00
48041;BME280;33815;48.386;11.738;2023-05-22T07:05:36;96171.47;;;16.64;100.00
48041;BME280;33815;48.386;11.738;2023-05-22T07:08:01;96180.41;;;16.76;100.00
48041;BME280;33815;48.386;11.738;2023-05-22T07:10:26;96185.06;;;16.87;100.00
48041;BME280;33815;48.386;11.738;2023-05-22T07:12:52;96186.78;;;17.02;100.00
48041;BME280;33815;48.386;11.738;2023-05-22T07:15:17;96180.69;;;17.08;100.00
48041;BME280;33815;48.386;11.738;2023-05-22T07:17:42;96186.56;;;17.17;100.00
48041;BME280;33815;48.386;11.738;2023-05-22T07:20:08;96190.25;;;17.36;100.00
48041;BME280;33815;48.386;11.738;2023-05-22T07:22:36;96191.66;;;17.45;98.36
48041;BME280;33815;48.386;11.738;2023-05-22T07:25:01;96194.28;;;17.58;97.89
48041;BME280;33815;48.386;11.738;2023-05-22T07:27:26;96187.38;;;17.64;98.29
48041;BME280;33815;48.386;11.738;2023-05-22T07:29:52;96191.00;;;17.83;97.28
48041;BME280;33815;48.386;11.738;2023-05-22T07:32:17;96190.84;;;17.91;96.92
48041;BME280;33815;48.386;11.738;2023-05-22T07:34:42;96180.03;;;18.06;95.46
48041;BME280;33815;48.386;11.738;2023-05-22T07:37:10;96189.94;;;18.18;93.84
48041;BME280;33815;48.386;11.738;2023-05-22T07:39:36;96184.44;;;18.26;91.77
48041;BME280;33815;48.386;11.738;2023-05-22T07:42:01;96188.28;;;18.30;91.79
48041;BME280;33815;48.386;11.738;2023-05-22T07:44:27;96186.06;;;18.27;91.71
48041;BME280;33815;48.386;11.738;2023-05-22T07:46:52;96190.53;;;18.26;90.97
48041;BME280;33815;48.386;11.738;2023-05-22T07:49:19;96195.56;;;18.35;93.70
48041;BME280;33815;48.386;11.738;2023-05-22T07:51:46;96194.63;;;18.61;92.33
48041;BME280;33815;48.386;11.738;2023-05-22T07:54:11;96189.09;;;18.76;89.80
48041;BME280;33815;48.386;11.738;2023-05-22T07:56:40;96198.75;;;18.95;90.78
48041;BME280;33815;48.386;11.738;2023-05-22T07:59:05;96187.72;;;19.05;89.61
48041;BME280;33815;48.386;11.738;2023-05-22T08:01:31;96189.81;;;19.22;89.56
48041;BME280;33815;48.386;11.738;2023-05-22T08:03:57;96176.84;;;19.20;89.37
48041;BME280;33815;48.386;11.738;2023-05-22T08:06:22;96187.81;;;19.49;91.84
48041;BME280;33815;48.386;11.738;2023-05-22T08:08:48;96188.72;;;19.61;86.03
48041;BME280;33815;48.386;11.738;2023-05-22T08:11:13;96186.00;;;19.93;86.82
48041;BME280;33815;48.386;11.738;2023-05-22T08:13:39;96185.28;;;20.23;79.21
48041;BME280;33815;48.386;11.738;2023-05-22T08:16:04;96185.41;;;20.10;81.01
48041;BME280;33815;48.386;11.738;2023-05-22T08:18:30;96190.03;;;20.70;79.36
48041;BME280;33815;48.386;11.738;2023-05-22T08:20:55;96181.06;;;21.67;74.67
48041;BME280;33815;48.386;11.738;2023-05-22T08:23:20;96182.72;;;22.73;69.78
48041;BME280;33815;48.386;11.738;2023-05-22T08:25:46;96163.75;;;23.61;62.53
48041;BME280;33815;48.386;11.738;2023-05-22T08:28:11;96173.47;;;23.73;59.37
48041;BME280;33815;48.386;11.738;2023-05-22T08:30:36;96164.97;;;24.10;57.63
48041;BME280;33815;48.386;11.738;2023-05-22T08:33:02;96151.38;;;24.56;59.11
48041;BME280;33815;48.386;11.738;2023-05-22T08:35:27;96162.69;;;24.90;58.19
48041;BME280;33815;48.386;11.738;2023-05-22T08:37:52;96159.28;;;24.68;56.72
48041;BME280;33815;48.386;11.738;2023-05-22T08:40:19;96167.19;;;24.18;55.48
48041;BME280;33815;48.386;11.738;2023-05-22T08:42:44;96151.38;;;24.78;55.49
48041;BME280;33815;48.386;11.738;2023-05-22T08:45:09;96163.31;;;24.97;56.37
48041;BME280;33815;48.386;11.738;2023-05-22T08:47:35;96160.06;;;24.46;55.50
48041;BME280;33815;48.386;11.738;2023-05-22T08:50:02;96160.16;;;24.78;54.99
48041;BME280;33815;48.386;11.738;2023-05-22T08:52:41;96146.47;;;25.99;51.81
48041;BME280;33815;48.386;11.738;2023-05-22T08:55:11;96145.81;;;26.30;52.27
48041;BME280;33815;48.386;11.738;2023-05-22T08:57:37;96139.63;;;26.19;49.70
48041;BME280;33815;48.386;11.738;2023-05-22T09:00:02;96148.28;;;25.46;50.48
48041;BME280;33815;48.386;11.738;2023-05-22T09:02:28;96146.41;;;24.87;50.24
48041;BME280;33815;48.386;11.738;2023-05-22T09:04:54;96148.81;;;24.88;52.04
48041;BME280;33815;48.386;11.738;2023-05-22T09:07:21;96151.56;;;24.49;52.69
48041;BME280;33815;48.386;11.738;2023-05-22T09:09:48;96149.19;;;24.25;56.26
48041;BME280;33815;48.386;11.738;2023-05-22T09:12:13;96157.88;;;24.16;57.22
48041;BME280;33815;48.386;11.738;2023-05-22T09:14:43;96145.94;;;24.45;53.44
48041;BME280;33815;48.386;11.738;2023-05-22T09:17:10;96154.63;;;24.14;54.39
48041;BME280;33815;48.386;11.738;2023-05-22T09:19:42;96165.53;;;24.12;55.79
48041;BME280;33815;48.386;11.738;2023-05-22T09:22:08;96163.06;;;24.27;54.36
48041;BME280;33815;48.386;11.738;2023-05-22T09:24:38;96163.31;;;24.48;53.90
48041;BME280;33815;48.386;11.738;2023-05-22T09:27:07;96179.16;;;24.16;58.12
48041;BME280;33815;48.386;11.738;2023-05-22T09:32:14;96161.25;;;23.89;54.47
48041;BME280;33815;48.386;11.738;2023-05-22T09:34:40;96156.97;;;23.88;57.02
48041;BME280;33815;48.386;11.738;2023-05-22T09:37:05;96154.88;;;24.34;54.51
48041;BME280;33815;48.386;11.738;2023-05-22T09:39:37;96164.19;;;24.59;53.71
48041;BME280;33815;48.386;11.738;2023-05-22T09:42:04;96163.91;;;24.55;54.42
48041;BME280;33815;48.386;11.738;2023-05-22T09:44:31;96171.91;;;24.77;54.75
48041;BME280;33815;48.386;11.738;2023-05-22T09:46:56;96177.25;;;24.77;58.76
48041;BME280;33815;48.386;11.738;2023-05-22T09:49:22;96173.16;;;24.97;56.42
48041;BME280;33815;48.386;11.738;2023-05-22T09:51:47;96176.47;;;25.09;55.97
48041;BME280;33815;48.386;11.738;2023-05-22T09:54:16;96181.72;;;24.99;56.48
48041;BME280;33815;48.386;11.738;2023-05-22T09:56:43;96165.78;;;24.55;53.85
48041;BME280;33815;48.386;11.738;2023-05-22T09:59:08;96173.59;;;24.39;58.34
48041;BME280;33815;48.386;11.738;2023-05-22T10:01:35;96170.34;;;24.59;56.78
48041;BME280;33815;48.386;11.738;2023-05-22T10:04:01;96158.41;;;24.89;55.65
48041;BME280;33815;48.386;11.738;2023-05-22T10:06:26;96158.97;;;24.64;58.10
48041;BME280;33815;48.386;11.738;2023-05-22T10:08:58;96175.38;;;24.78;60.13
48041;BME280;33815;48.386;11.738;2023-05-22T10:11:28;96168.00;;;24.63;57.28
48041;BME280;33815;48.386;11.738;2023-05-22T10:13:54;96168.47;;;24.60;55.71
48041;BME280;33815;48.386;11.738;2023-05-22T10:16:22;96164.91;;;24.99;59.72
48041;BME280;33815;48.386;11.738;2023-05-22T10:18:49;96155.41;;;24.58;53.99
48041;BME280;33815;48.386;11.738;2023-05-22T10:21:16;96163.41;;;24.80;56.62
48041;BME280;33815;48.386;11.738;2023-05-22T10:23:43;96150.13;;;24.86;53.16
48041;BME280;33815;48.386;11.738;2023-05-22T10:26:09;96158.72;;;24.93;56.49
48041;BME280;33815;48.386;11.738;2023-05-22T10:28:41;96166.41;;;25.17;60.28
48041;BME280;33815;48.386;11.738;2023-05-22T10:34:24;96148.34;;;25.29;53.22
48041;BME280;33815;48.386;11.738;2023-05-22T10:37:21;96147.50;;;25.18;52.67
48041;BME280;33815;48.386;11.738;2023-05-22T10:39:53;96153.72;;;24.74;53.43
48041;BME280;33815;48.386;11.738;2023-05-22T10:42:28;96162.22;;;24.49;56.05
48041;BME280;33815;48.386;11.738;2023-05-22T10:44:53;96155.13;;;24.33;56.47
48041;BME280;33815;48.386;11.738;2023-05-22T10:47:19;96155.41;;;24.58;56.71
48041;BME280;33815;48.386;11.738;2023-05-22T10:49:44;96148.91;;;24.71;56.93
48041;BME280;33815;48.386;11.738;2023-05-22T10:52:11;96151.72;;;24.87;58.46
48041;BME280;33815;48.386;11.738;2023-05-22T10:57:16;96151.59;;;25.31;59.50
48041;BME280;33815;48.386;11.738;2023-05-22T10:59:43;96146.47;;;25.24;52.98
48041;BME280;33815;48.386;11.738;2023-05-22T11:02:41;96151.47;;;25.16;55.78
48041;BME280;33815;48.386;11.738;2023-05-22T11:07:49;96147.22;;;24.87;53.86
48041;BME280;33815;48.386;11.738;2023-05-22T11:10:24;96145.00;;;24.79;53.24
48041;BME280;33815;48.386;11.738;2023-05-22T11:13:01;96136.31;;;24.94;56.17
48041;BME280;33815;48.386;11.738;2023-05-22T11:15:30;96134.81;;;25.03;53.86
48041;BME280;33815;48.386;11.738;2023-05-22T11:18:04;96133.63;;;25.54;53.45
48041;BME280;33815;48.386;11.738;2023-05-22T11:20:36;96129.91;;;25.55;53.64
48041;BME280;33815;48.386;11.738;2023-05-22T11:23:04;96131.53;;;25.61;52.53
48041;BME280;33815;48.386;11.738;2023-05-22T11:25:33;96134.34;;;25.81;52.74
48041;BME280;33815;48.386;11.738;2023-05-22T11:28:01;96116.09;;;25.63;48.62
48041;BME280;33815;48.386;11.738;2023-05-22T11:30:27;96131.84;;;25.70;51.14
48041;BME280;33815;48.386;11.738;2023-05-22T11:32:56;96128.38;;;26.12;52.08
48041;BME280;33815;48.386;11.738;2023-05-22T11:35:21;96113.94;;;26.13;47.47
48041;BME280;33815;48.386;11.738;2023-05-22T11:37:48;96121.59;;;25.99;48.83
48041;BME280;33815;48.386;11.738;2023-05-22T11:40:15;96112.06;;;26.08;47.68
48041;BME280;33815;48.386;11.738;2023-05-22T11:42:41;96119.16;;;26.50;51.03
48041;BME280;33815;48.386;11.738;2023-05-22T11:45:06;96105.28;;;26.59;48.89
48041;BME280;33815;48.386;11.738;2023-05-22T11:47:32;96107.13;;;26.48;48.10
48041;BME280;33815;48.386;11.738;2023-05-22T11:49:58;96103.13;;;26.50;47.66
48041;BME280;33815;48.386;11.738;2023-05-22T11:52:24;96116.59;;;27.17;48.64
48041;BME280;33815;48.386;11.738;2023-05-22T11:54:51;96102.69;;;27.36;48.06
48041;BME280;33815;48.386;11.738;2023-05-22T11:57:17;96110.13;;;27.75;51.46
48041;BME280;33815;48.386;11.738;2023-05-22T11:59:46;96109.25;;;28.06;52.88
48041;BME280;33815;48.386;11.738;2023-05-22T12:02:11;96103.16;;;28.45;47.44
48041;BME280;33815;48.386;11.738;2023-05-22T12:04:38;96103.13;;;28.55;48.94
48041;BME280;33815;48.386;11.738;2023-05-22T12:07:03;96085.41;;;28.59;45.28
48041;BME280;33815;48.386;11.738;2023-05-22T12:09:29;96097.78;;;28.50;51.24
48041;BME280;33815;48.386;11.738;2023-05-22T12:11:55;96089.75;;;28.45;46.07
48041;BME280;33815;48.386;11.738;2023-05-22T12:14:25;96094.88;;;28.41;45.06
48041;BME280;33815;48.386;11.738;2023-05-22T12:16:50;96091.72;;;28.29;44.39
48041;BME280;33815;48.386;11.738;2023-05-22T12:19:16;96091.56;;;28.10;45.04
48041;BME280;33815;48.386;11.738;2023-05-22T12:21:43;96072.97;;;27.48;42.45
48041;BME280;33815;48.386;11.738;2023-05-22T12:24:08;96085.03;;;27.35;43.44
48041;BME280;33815;48.386;11.738;2023-05-22T12:26:34;96086.84;;;27.65;44.54
48041;BME280;33815;48.386;11.738;2023-05-22T12:29:00;96080.41;;;27.77;42.88
48041;BME280;33815;48.386;11.738;2023-05-22T12:31:26;96087.69;;;27.50;42.63
48041;BME280;33815;48.386;11.738;2023-05-22T12:33:55;96082.50;;;27.85;43.38
48041;BME280;33815;48.386;11.738;2023-05-22T12:36:33;96075.78;;;28.03;45.11
48041;BME280;33815;48.386;11.738;2023-05-22T12:38:59;96080.31;;;28.58;43.91
48041;BME280;33815;48.386;11.738;2023-05-22T12:41:24;96073.75;;;28.79;42.21
48041;BME280;33815;48.386;11.738;2023-05-22T12:43:50;96063.03;;;28.29;41.63
48041;BME280;33815;48.386;11.738;2023-05-22T12:46:15;96072.72;;;28.75;44.23
48041;BME280;33815;48.386;11.738;2023-05-22T12:48:41;96064.34;;;28.82;40.70
48041;BME280;33815;48.386;11.738;2023-05-22T12:51:06;96066.75;;;28.83;42.75
48041;BME280;33815;48.386;11.738;2023-05-22T12:53:33;96059.34;;;29.04;40.34
48041;BME280;33815;48.386;11.738;2023-05-22T12:55:58;96057.75;;;28.69;41.11
48041;BME280;33815;48.386;11.738;2023-05-22T12:58:23;96046.03;;;28.10;40.78
48041;BME280;33815;48.386;11.738;2023-05-22T13:00:49;96051.84;;;28.22;40.70
48041;BME280;33815;48.386;11.738;2023-05-22T13:03:14;96059.47;;;28.44;42.44
48041;BME280;33815;48.386;11.738;2023-05-22T13:05:39;96037.06;;;28.75;40.32